Ogden, Indiana
Current Conditions -  °F | °C
As of 11:34 AM on Tuesday 21 Oct 2014 (Local Time) from KMQJ Reporting Station
Broken Clouds Broken Clouds  
Wind Chill: 54°   Ceiling: 3500
Heat Index: 54°   Visibility: 10mi
Dew Point: 37°   Wind: 13mph
Humidity: 54%   Direction: 330°NNW
Pressure: 30.08"   Gusts: NA
Location:  39.8283°N, 85.543°W
Report Text: KMQJ 211534Z AUTO 33011KT 10SM SCT025 BKN035 BKN050 12/03 A3008 RMK AO1
Loading
Personal Weather Stations






























Interactive Weather Map
Tropical Storm Tracking
New forecast layout! Learn more

10-Day Weather Forecast

Advertisements
Track Severe Weather on mobile